sensor_id;sensor_type;location;lat;lon;timestamp;temperature;humidity
44886;DHT22;36669;51.428;21.162;2023-04-27T00:01:23;4.20;99.90
44886;DHT22;36669;51.428;21.162;2023-04-27T00:03:49;4.10;99.90
44886;DHT22;36669;51.428;21.162;2023-04-27T00:06:17;4.10;99.90
44886;DHT22;36669;51.428;21.162;2023-04-27T00:08:43;4.10;99.90
44886;DHT22;36669;51.428;21.162;2023-04-27T00:11:09;4.10;99.90
44886;DHT22;36669;51.428;21.162;2023-04-27T00:13:35;4.10;99.90
44886;DHT22;36669;51.428;21.162;2023-04-27T00:16:02;4.20;99.90
44886;DHT22;36669;51.428;21.162;2023-04-27T00:18:29;4.10;99.90
44886;DHT22;36669;51.428;21.162;2023-04-27T00:20:57;4.10;99.90
44886;DHT22;36669;51.428;21.162;2023-04-27T00:23:23;4.10;99.90
44886;DHT22;36669;51.428;21.162;2023-04-27T00:25:50;4.10;99.90
44886;DHT22;36669;51.428;21.162;2023-04-27T00:28:17;4.00;99.90
44886;DHT22;36669;51.428;21.162;2023-04-27T00:30:43;4.00;99.90
44886;DHT22;36669;51.428;21.162;2023-04-27T00:33:09;3.90;99.90
44886;DHT22;36669;51.428;21.162;2023-04-27T00:35:35;3.90;99.90
44886;DHT22;36669;51.428;21.162;2023-04-27T00:38:01;3.90;99.90
44886;DHT22;36669;51.428;21.162;2023-04-27T00:40:26;4.00;99.90
44886;DHT22;36669;51.428;21.162;2023-04-27T00:42:52;3.90;99.90
44886;DHT22;36669;51.428;21.162;2023-04-27T00:45:18;3.90;99.90
44886;DHT22;36669;51.428;21.162;2023-04-27T00:47:45;3.90;99.90
44886;DHT22;36669;51.428;21.162;2023-04-27T00:50:12;3.90;99.90
44886;DHT22;36669;51.428;21.162;2023-04-27T00:52:39;3.90;99.90
44886;DHT22;36669;51.428;21.162;2023-04-27T00:55:06;3.80;99.90
44886;DHT22;36669;51.428;21.162;2023-04-27T00:57:32;3.80;99.90
44886;DHT22;36669;51.428;21.162;2023-04-27T01:00:03;3.80;99.90
44886;DHT22;36669;51.428;21.162;2023-04-27T01:02:33;3.80;99.90
44886;DHT22;36669;51.428;21.162;2023-04-27T01:05:00;3.80;99.90
44886;DHT22;36669;51.428;21.162;2023-04-27T01:07:28;3.80;99.90
44886;DHT22;36669;51.428;21.162;2023-04-27T01:09:55;3.80;99.90
44886;DHT22;36669;51.428;21.162;2023-04-27T01:12:21;3.70;99.90
44886;DHT22;36669;51.428;21.162;2023-04-27T01:14:48;3.70;99.90
44886;DHT22;36669;51.428;21.162;2023-04-27T01:17:15;3.70;99.90
44886;DHT22;36669;51.428;21.162;2023-04-27T01:19:42;3.70;99.90
44886;DHT22;36669;51.428;21.162;2023-04-27T01:22:10;3.70;99.90
44886;DHT22;36669;51.428;21.162;2023-04-27T01:24:36;3.70;99.90
44886;DHT22;36669;51.428;21.162;2023-04-27T01:27:02;3.70;99.90
44886;DHT22;36669;51.428;21.162;2023-04-27T01:29:29;3.60;99.90
44886;DHT22;36669;51.428;21.162;2023-04-27T01:31:56;3.60;99.90
44886;DHT22;36669;51.428;21.162;2023-04-27T01:34:23;3.60;99.90
44886;DHT22;36669;51.428;21.162;2023-04-27T01:36:50;3.60;99.90
44886;DHT22;36669;51.428;21.162;2023-04-27T01:39:15;3.60;99.90
44886;DHT22;36669;51.428;21.162;2023-04-27T01:41:45;3.70;99.90
44886;DHT22;36669;51.428;21.162;2023-04-27T01:44:11;3.70;99.90
44886;DHT22;36669;51.428;21.162;2023-04-27T01:46:39;3.60;99.90
44886;DHT22;36669;51.428;21.162;2023-04-27T01:49:06;3.60;99.90
44886;DHT22;36669;51.428;21.162;2023-04-27T01:51:33;3.60;99.90
44886;DHT22;36669;51.428;21.162;2023-04-27T01:53:59;3.60;99.90
44886;DHT22;36669;51.428;21.162;2023-04-27T01:56:25;3.60;99.90
44886;DHT22;36669;51.428;21.162;2023-04-27T01:58:52;3.60;99.90
44886;DHT22;36669;51.428;21.162;2023-04-27T02:01:19;3.60;99.90
44886;DHT22;36669;51.428;21.162;2023-04-27T02:03:46;3.70;99.90
44886;DHT22;36669;51.428;21.162;2023-04-27T02:06:13;3.60;99.90
44886;DHT22;36669;51.428;21.162;2023-04-27T02:08:39;3.70;99.90
44886;DHT22;36669;51.428;21.162;2023-04-27T02:11:06;3.70;99.90
44886;DHT22;36669;51.428;21.162;2023-04-27T02:13:33;3.70;99.90
44886;DHT22;36669;51.428;21.162;2023-04-27T02:16:01;3.70;99.90
44886;DHT22;36669;51.428;21.162;2023-04-27T02:18:30;3.70;99.90
44886;DHT22;36669;51.428;21.162;2023-04-27T02:21:00;3.70;99.90
44886;DHT22;36669;51.428;21.162;2023-04-27T02:23:27;3.60;99.90
44886;DHT22;36669;51.428;21.162;2023-04-27T02:25:54;3.60;99.90
44886;DHT22;36669;51.428;21.162;2023-04-27T02:28:21;3.70;99.90
44886;DHT22;36669;51.428;21.162;2023-04-27T02:30:48;3.70;99.90
44886;DHT22;36669;51.428;21.162;2023-04-27T02:33:15;3.70;99.90
44886;DHT22;36669;51.428;21.162;2023-04-27T02:35:41;3.70;99.90
44886;DHT22;36669;51.428;21.162;2023-04-27T02:38:08;3.70;99.90
44886;DHT22;36669;51.428;21.162;2023-04-27T02:40:36;3.60;99.90
44886;DHT22;36669;51.428;21.162;2023-04-27T02:43:02;3.60;99.90
44886;DHT22;36669;51.428;21.162;2023-04-27T02:45:29;3.50;99.90
44886;DHT22;36669;51.428;21.162;2023-04-27T02:47:56;3.50;99.90
44886;DHT22;36669;51.428;21.162;2023-04-27T02:50:21;3.40;99.90
44886;DHT22;36669;51.428;21.162;2023-04-27T02:52:48;3.40;99.90
44886;DHT22;36669;51.428;21.162;2023-04-27T02:55:15;3.40;99.90
44886;DHT22;36669;51.428;21.162;2023-04-27T02:57:41;3.40;99.90
44886;DHT22;36669;51.428;21.162;2023-04-27T03:00:07;3.30;99.90
44886;DHT22;36669;51.428;21.162;2023-04-27T03:02:34;3.30;99.90
44886;DHT22;36669;51.428;21.162;2023-04-27T03:05:01;3.20;99.90
44886;DHT22;36669;51.428;21.162;2023-04-27T03:07:30;3.20;99.90
44886;DHT22;36669;51.428;21.162;2023-04-27T03:09:57;3.20;99.90
44886;DHT22;36669;51.428;21.162;2023-04-27T03:12:23;3.10;99.90
44886;DHT22;36669;51.428;21.162;2023-04-27T03:14:50;3.10;99.90
44886;DHT22;36669;51.428;21.162;2023-04-27T03:17:17;3.10;99.90
44886;DHT22;36669;51.428;21.162;2023-04-27T03:19:45;3.10;99.90
44886;DHT22;36669;51.428;21.162;2023-04-27T03:22:12;3.10;99.90
44886;DHT22;36669;51.428;21.162;2023-04-27T03:24:39;3.10;99.90
44886;DHT22;36669;51.428;21.162;2023-04-27T03:27:06;3.10;99.90
44886;DHT22;36669;51.428;21.162;2023-04-27T03:29:32;3.10;99.90
44886;DHT22;36669;51.428;21.162;2023-04-27T03:31:59;3.10;99.90
44886;DHT22;36669;51.428;21.162;2023-04-27T03:34:26;3.10;99.90
44886;DHT22;36669;51.428;21.162;2023-04-27T03:36:52;3.00;99.90
44886;DHT22;36669;51.428;21.162;2023-04-27T03:39:19;3.10;99.90
44886;DHT22;36669;51.428;21.162;2023-04-27T03:41:46;3.10;99.90
44886;DHT22;36669;51.428;21.162;2023-04-27T03:44:13;3.00;99.90
44886;DHT22;36669;51.428;21.162;2023-04-27T03:46:40;2.90;99.90
44886;DHT22;36669;51.428;21.162;2023-04-27T03:49:05;2.90;99.90
44886;DHT22;36669;51.428;21.162;2023-04-27T03:51:32;2.90;99.90
44886;DHT22;36669;51.428;21.162;2023-04-27T03:53:59;2.90;99.90
44886;DHT22;36669;51.428;21.162;2023-04-27T03:56:27;2.80;99.90
44886;DHT22;36669;51.428;21.162;2023-04-27T03:58:53;2.90;99.90
44886;DHT22;36669;51.428;21.162;2023-04-27T04:01:19;2.90;99.90
44886;DHT22;36669;51.428;21.162;2023-04-27T04:03:46;2.90;99.90
44886;DHT22;36669;51.428;21.162;2023-04-27T04:06:13;2.90;99.90
44886;DHT22;36669;51.428;21.162;2023-04-27T04:08:40;2.90;99.90
44886;DHT22;36669;51.428;21.162;2023-04-27T04:11:06;3.00;99.90
44886;DHT22;36669;51.428;21.162;2023-04-27T04:13:33;3.00;99.90
44886;DHT22;36669;51.428;21.162;2023-04-27T04:16:02;3.00;99.90
44886;DHT22;36669;51.428;21.162;2023-04-27T04:18:28;3.00;99.90
44886;DHT22;36669;51.428;21.162;2023-04-27T04:20:55;3.10;99.90
44886;DHT22;36669;51.428;21.162;2023-04-27T04:23:22;3.10;99.90
44886;DHT22;36669;51.428;21.162;2023-04-27T04:25:49;3.20;99.90
44886;DHT22;36669;51.428;21.162;2023-04-27T04:28:16;3.20;99.90
44886;DHT22;36669;51.428;21.162;2023-04-27T04:30:43;3.30;99.90
44886;DHT22;36669;51.428;21.162;2023-04-27T04:33:11;3.30;99.90
44886;DHT22;36669;51.428;21.162;2023-04-27T04:35:38;3.40;99.90
44886;DHT22;36669;51.428;21.162;2023-04-27T04:38:04;3.40;99.90
44886;DHT22;36669;51.428;21.162;2023-04-27T04:40:30;3.50;99.90
44886;DHT22;36669;51.428;21.162;2023-04-27T04:42:57;3.60;99.90
44886;DHT22;36669;51.428;21.162;2023-04-27T04:45:24;3.70;99.90
44886;DHT22;36669;51.428;21.162;2023-04-27T04:47:51;3.70;99.90
44886;DHT22;36669;51.428;21.162;2023-04-27T04:50:20;3.80;99.90
44886;DHT22;36669;51.428;21.162;2023-04-27T04:52:46;3.90;99.90
44886;DHT22;36669;51.428;21.162;2023-04-27T04:55:12;4.00;99.90
44886;DHT22;36669;51.428;21.162;2023-04-27T04:57:38;4.00;99.90
44886;DHT22;36669;51.428;21.162;2023-04-27T05:00:05;4.10;99.90
44886;DHT22;36669;51.428;21.162;2023-04-27T05:02:37;4.10;99.90
44886;DHT22;36669;51.428;21.162;2023-04-27T05:05:04;4.20;99.90
44886;DHT22;36669;51.428;21.162;2023-04-27T05:07:31;4.30;99.90
44886;DHT22;36669;51.428;21.162;2023-04-27T05:09:58;4.40;99.90
44886;DHT22;36669;51.428;21.162;2023-04-27T05:12:25;4.50;99.90
44886;DHT22;36669;51.428;21.162;2023-04-27T05:14:51;4.50;99.90
44886;DHT22;36669;51.428;21.162;2023-04-27T05:17:18;4.60;99.90
44886;DHT22;36669;51.428;21.162;2023-04-27T05:19:44;4.70;99.90
44886;DHT22;36669;51.428;21.162;2023-04-27T05:22:12;4.80;99.90
44886;DHT22;36669;51.428;21.162;2023-04-27T05:24:38;4.90;99.90
44886;DHT22;36669;51.428;21.162;2023-04-27T05:27:05;4.90;99.90
44886;DHT22;36669;51.428;21.162;2023-04-27T05:29:32;5.00;99.90
44886;DHT22;36669;51.428;21.162;2023-04-27T05:31:59;5.10;99.90
44886;DHT22;36669;51.428;21.162;2023-04-27T05:34:26;5.10;99.90
44886;DHT22;36669;51.428;21.162;2023-04-27T05:36:52;5.10;99.90
44886;DHT22;36669;51.428;21.162;2023-04-27T05:39:19;5.20;99.90
44886;DHT22;36669;51.428;21.162;2023-04-27T05:41:46;5.20;99.90
44886;DHT22;36669;51.428;21.162;2023-04-27T05:44:13;5.30;99.90
44886;DHT22;36669;51.428;21.162;2023-04-27T05:46:40;5.40;99.90
44886;DHT22;36669;51.428;21.162;2023-04-27T05:49:07;5.50;99.90
44886;DHT22;36669;51.428;21.162;2023-04-27T05:51:34;5.50;99.90
44886;DHT22;36669;51.428;21.162;2023-04-27T05:54:01;5.60;99.90
44886;DHT22;36669;51.428;21.162;2023-04-27T05:56:29;5.60;99.90
44886;DHT22;36669;51.428;21.162;2023-04-27T05:58:56;5.70;99.90
44886;DHT22;36669;51.428;21.162;2023-04-27T06:01:22;5.70;99.90
44886;DHT22;36669;51.428;21.162;2023-04-27T06:03:49;5.80;99.90
44886;DHT22;36669;51.428;21.162;2023-04-27T06:06:16;5.80;99.90
44886;DHT22;36669;51.428;21.162;2023-04-27T06:08:43;5.90;99.90
44886;DHT22;36669;51.428;21.162;2023-04-27T06:11:10;5.90;99.90
44886;DHT22;36669;51.428;21.162;2023-04-27T06:13:38;6.00;99.90
44886;DHT22;36669;51.428;21.162;2023-04-27T06:16:05;6.10;99.90
44886;DHT22;36669;51.428;21.162;2023-04-27T06:18:31;6.10;99.90
44886;DHT22;36669;51.428;21.162;2023-04-27T06:20:57;6.20;99.90
44886;DHT22;36669;51.428;21.162;2023-04-27T06:23:25;6.20;99.90
44886;DHT22;36669;51.428;21.162;2023-04-27T06:25:53;6.30;99.90
44886;DHT22;36669;51.428;21.162;2023-04-27T06:28:20;6.40;99.90
44886;DHT22;36669;51.428;21.162;2023-04-27T06:30:45;6.50;99.90
44886;DHT22;36669;51.428;21.162;2023-04-27T06:33:13;6.50;99.90
44886;DHT22;36669;51.428;21.162;2023-04-27T06:35:39;6.60;99.90
44886;DHT22;36669;51.428;21.162;2023-04-27T06:38:07;6.70;99.90
44886;DHT22;36669;51.428;21.162;2023-04-27T06:40:34;6.80;99.90
44886;DHT22;36669;51.428;21.162;2023-04-27T06:43:01;6.80;99.90
44886;DHT22;36669;51.428;21.162;2023-04-27T06:45:27;6.80;99.90
44886;DHT22;36669;51.428;21.162;2023-04-27T06:47:53;6.80;99.90
44886;DHT22;36669;51.428;21.162;2023-04-27T06:50:21;6.90;99.90
44886;DHT22;36669;51.428;21.162;2023-04-27T06:52:47;6.90;99.90
44886;DHT22;36669;51.428;21.162;2023-04-27T06:55:14;7.00;99.90
44886;DHT22;36669;51.428;21.162;2023-04-27T06:57:39;7.10;99.90
44886;DHT22;36669;51.428;21.162;2023-04-27T07:00:06;7.00;99.90
44886;DHT22;36669;51.428;21.162;2023-04-27T07:02:33;7.00;99.90
44886;DHT22;36669;51.428;21.162;2023-04-27T07:04:59;7.20;99.90
44886;DHT22;36669;51.428;21.162;2023-04-27T07:07:26;7.30;99.90
44886;DHT22;36669;51.428;21.162;2023-04-27T07:09:53;7.50;99.90
44886;DHT22;36669;51.428;21.162;2023-04-27T07:12:20;7.60;99.90
44886;DHT22;36669;51.428;21.162;2023-04-27T07:14:47;7.50;99.90
44886;DHT22;36669;51.428;21.162;2023-04-27T07:17:15;7.70;99.90
44886;DHT22;36669;51.428;21.162;2023-04-27T07:19:43;7.80;99.90
44886;DHT22;36669;51.428;21.162;2023-04-27T07:22:10;7.80;99.90
44886;DHT22;36669;51.428;21.162;2023-04-27T07:24:37;7.90;99.90
44886;DHT22;36669;51.428;21.162;2023-04-27T07:27:04;8.10;99.90
44886;DHT22;36669;51.428;21.162;2023-04-27T07:29:30;8.10;99.90
44886;DHT22;36669;51.428;21.162;2023-04-27T07:31:56;8.00;99.90
44886;DHT22;36669;51.428;21.162;2023-04-27T07:34:23;8.00;99.90
44886;DHT22;36669;51.428;21.162;2023-04-27T07:36:50;8.10;99.90
44886;DHT22;36669;51.428;21.162;2023-04-27T07:39:19;8.30;99.90
44886;DHT22;36669;51.428;21.162;2023-04-27T07:41:45;8.20;99.90
44886;DHT22;36669;51.428;21.162;2023-04-27T07:44:11;8.30;99.90
44886;DHT22;36669;51.428;21.162;2023-04-27T07:46:37;8.20;99.90
44886;DHT22;36669;51.428;21.162;2023-04-27T07:49:04;8.30;99.90
44886;DHT22;36669;51.428;21.162;2023-04-27T07:51:31;8.40;99.90
44886;DHT22;36669;51.428;21.162;2023-04-27T07:53:59;8.60;99.90
44886;DHT22;36669;51.428;21.162;2023-04-27T07:56:28;8.60;99.90
44886;DHT22;36669;51.428;21.162;2023-04-27T07:58:57;8.70;99.90
44886;DHT22;36669;51.428;21.162;2023-04-27T08:01:24;8.70;99.90
44886;DHT22;36669;51.428;21.162;2023-04-27T08:03:51;8.60;99.90
44886;DHT22;36669;51.428;21.162;2023-04-27T08:06:17;8.60;99.90
44886;DHT22;36669;51.428;21.162;2023-04-27T08:08:44;8.70;99.90
44886;DHT22;36669;51.428;21.162;2023-04-27T08:11:10;8.90;99.90
44886;DHT22;36669;51.428;21.162;2023-04-27T08:13:36;9.10;99.90
44886;DHT22;36669;51.428;21.162;2023-04-27T08:16:03;9.30;99.90
44886;DHT22;36669;51.428;21.162;2023-04-27T08:18:30;9.50;99.90
44886;DHT22;36669;51.428;21.162;2023-04-27T08:20:55;9.50;99.90
44886;DHT22;36669;51.428;21.162;2023-04-27T08:23:25;9.30;99.90
44886;DHT22;36669;51.428;21.162;2023-04-27T08:25:52;9.00;99.90
44886;DHT22;36669;51.428;21.162;2023-04-27T08:28:19;9.00;99.90
44886;DHT22;36669;51.428;21.162;2023-04-27T08:30:46;9.00;99.90
44886;DHT22;36669;51.428;21.162;2023-04-27T08:33:14;9.10;99.90
44886;DHT22;36669;51.428;21.162;2023-04-27T08:35:40;9.20;99.90
44886;DHT22;36669;51.428;21.162;2023-04-27T08:38:07;9.40;99.90
44886;DHT22;36669;51.428;21.162;2023-04-27T08:40:34;9.50;99.90
44886;DHT22;36669;51.428;21.162;2023-04-27T08:43:01;9.30;99.00
44886;DHT22;36669;51.428;21.162;2023-04-27T08:45:28;9.20;99.10
44886;DHT22;36669;51.428;21.162;2023-04-27T08:47:54;9.20;99.60
44886;DHT22;36669;51.428;21.162;2023-04-27T08:50:21;9.20;99.60
44886;DHT22;36669;51.428;21.162;2023-04-27T08:52:50;9.40;98.80
44886;DHT22;36669;51.428;21.162;2023-04-27T08:55:17;9.50;96.20
44886;DHT22;36669;51.428;21.162;2023-04-27T08:57:54;9.60;94.40
44886;DHT22;36669;51.428;21.162;2023-04-27T09:00:22;9.70;95.50
44886;DHT22;36669;51.428;21.162;2023-04-27T09:02:49;9.90;94.80
44886;DHT22;36669;51.428;21.162;2023-04-27T09:05:17;9.90;93.30
44886;DHT22;36669;51.428;21.162;2023-04-27T09:08:04;9.70;92.10
44886;DHT22;36669;51.428;21.162;2023-04-27T09:10:47;9.90;92.10
44886;DHT22;36669;51.428;21.162;2023-04-27T09:13:13;10.10;92.20
44886;DHT22;36669;51.428;21.162;2023-04-27T09:18:15;10.50;89.50
44886;DHT22;36669;51.428;21.162;2023-04-27T09:20:46;10.10;87.60
44886;DHT22;36669;51.428;21.162;2023-04-27T09:23:28;10.20;89.90
44886;DHT22;36669;51.428;21.162;2023-04-27T09:25:54;10.10;90.10
44886;DHT22;36669;51.428;21.162;2023-04-27T09:28:23;10.10;89.60
44886;DHT22;36669;51.428;21.162;2023-04-27T09:30:54;9.80;88.00
44886;DHT22;36669;51.428;21.162;2023-04-27T09:33:26;9.90;90.00
44886;DHT22;36669;51.428;21.162;2023-04-27T09:35:54;10.00;90.30
44886;DHT22;36669;51.428;21.162;2023-04-27T09:38:22;10.10;90.00
44886;DHT22;36669;51.428;21.162;2023-04-27T09:40:49;10.10;90.00
44886;DHT22;36669;51.428;21.162;2023-04-27T09:43:16;10.20;90.50
44886;DHT22;36669;51.428;21.162;2023-04-27T09:45:42;10.20;90.10
44886;DHT22;36669;51.428;21.162;2023-04-27T09:48:09;10.10;86.30
44886;DHT22;36669;51.428;21.162;2023-04-27T09:50:35;9.90;87.50
44886;DHT22;36669;51.428;21.162;2023-04-27T09:53:04;9.90;89.70
44886;DHT22;36669;51.428;21.162;2023-04-27T09:55:39;9.80;88.60
44886;DHT22;36669;51.428;21.162;2023-04-27T10:03:42;9.60;90.20
44886;DHT22;36669;51.428;21.162;2023-04-27T10:06:20;9.50;89.80
44886;DHT22;36669;51.428;21.162;2023-04-27T10:08:55;9.50;89.30
44886;DHT22;36669;51.428;21.162;2023-04-27T10:11:32;9.50;90.20
44886;DHT22;36669;51.428;21.162;2023-04-27T10:13:58;9.40;90.50
44886;DHT22;36669;51.428;21.162;2023-04-27T10:16:38;9.40;91.10
44886;DHT22;36669;51.428;21.162;2023-04-27T10:19:08;9.40;91.30
44886;DHT22;36669;51.428;21.162;2023-04-27T10:21:35;9.50;91.50
44886;DHT22;36669;51.428;21.162;2023-04-27T10:24:08;9.70;92.10
44886;DHT22;36669;51.428;21.162;2023-04-27T10:26:33;9.90;91.80
44886;DHT22;36669;51.428;21.162;2023-04-27T10:29:06;10.00;92.10
44886;DHT22;36669;51.428;21.162;2023-04-27T10:31:34;10.10;91.20
44886;DHT22;36669;51.428;21.162;2023-04-27T10:34:10;10.30;91.50
44886;DHT22;36669;51.428;21.162;2023-04-27T10:36:40;10.20;90.90
44886;DHT22;36669;51.428;21.162;2023-04-27T10:39:19;10.40;91.10
44886;DHT22;36669;51.428;21.162;2023-04-27T10:41:54;10.30;91.20
44886;DHT22;36669;51.428;21.162;2023-04-27T10:44:28;10.40;91.00
44886;DHT22;36669;51.428;21.162;2023-04-27T10:46:54;10.30;90.90
44886;DHT22;36669;51.428;21.162;2023-04-27T10:49:21;10.60;91.10
44886;DHT22;36669;51.428;21.162;2023-04-27T10:51:49;10.60;91.50
44886;DHT22;36669;51.428;21.162;2023-04-27T10:54:15;10.70;91.20
44886;DHT22;36669;51.428;21.162;2023-04-27T10:56:42;10.80;91.10
44886;DHT22;36669;51.428;21.162;2023-04-27T10:59:09;10.60;88.40
44886;DHT22;36669;51.428;21.162;2023-04-27T11:01:34;10.40;89.10
44886;DHT22;36669;51.428;21.162;2023-04-27T11:04:02;10.10;93.10
44886;DHT22;36669;51.428;21.162;2023-04-27T11:06:30;9.80;96.40
44886;DHT22;36669;51.428;21.162;2023-04-27T11:09:00;9.40;96.10
44886;DHT22;36669;51.428;21.162;2023-04-27T11:11:27;9.30;97.50
44886;DHT22;36669;51.428;21.162;2023-04-27T11:13:54;9.20;95.90
44886;DHT22;36669;51.428;21.162;2023-04-27T11:16:21;9.00;96.40
44886;DHT22;36669;51.428;21.162;2023-04-27T11:18:48;8.90;97.60
44886;DHT22;36669;51.428;21.162;2023-04-27T11:21:16;8.90;97.90
44886;DHT22;36669;51.428;21.162;2023-04-27T11:23:43;8.80;99.20
44886;DHT22;36669;51.428;21.162;2023-04-27T11:26:12;8.80;99.80
44886;DHT22;36669;51.428;21.162;2023-04-27T11:29:03;8.80;99.90
44886;DHT22;36669;51.428;21.162;2023-04-27T11:31:46;8.70;99.90
44886;DHT22;36669;51.428;21.162;2023-04-27T11:34:14;8.70;99.90
44886;DHT22;36669;51.428;21.162;2023-04-27T11:36:40;8.60;99.90
44886;DHT22;36669;51.428;21.162;2023-04-27T11:39:07;8.60;99.90
44886;DHT22;36669;51.428;21.162;2023-04-27T11:41:38;8.60;99.90
44886;DHT22;36669;51.428;21.162;2023-04-27T11:44:11;8.70;99.90
44886;DHT22;36669;51.428;21.162;2023-04-27T11:46:42;8.70;99.90
44886;DHT22;36669;51.428;21.162;2023-04-27T11:49:09;8.80;99.90
44886;DHT22;36669;51.428;21.162;2023-04-27T11:51:38;8.90;99.90
44886;DHT22;36669;51.428;21.162;2023-04-27T11:54:13;8.90;99.90
44886;DHT22;36669;51.428;21.162;2023-04-27T11:56:40;9.00;99.90
44886;DHT22;36669;51.428;21.162;2023-04-27T11:59:16;8.90;99.90
44886;DHT22;36669;51.428;21.162;2023-04-27T12:01:43;8.90;99.90
44886;DHT22;36669;51.428;21.162;2023-04-27T12:04:10;9.00;99.90
44886;DHT22;36669;51.428;21.162;2023-04-27T12:06:35;9.10;99.90
44886;DHT22;36669;51.428;21.162;2023-04-27T12:09:02;9.10;99.90
44886;DHT22;36669;51.428;21.162;2023-04-27T12:11:29;9.10;99.90
44886;DHT22;36669;51.428;21.162;2023-04-27T12:13:57;9.20;99.90
44886;DHT22;36669;51.428;21.162;2023-04-27T12:16:24;9.10;99.90
44886;DHT22;36669;51.428;21.162;2023-04-27T12:18:51;9.20;99.90
44886;DHT22;36669;51.428;21.162;2023-04-27T12:21:18;9.20;99.90
44886;DHT22;36669;51.428;21.162;2023-04-27T12:23:43;9.40;99.90
44886;DHT22;36669;51.428;21.162;2023-04-27T12:26:11;9.50;99.90
44886;DHT22;36669;51.428;21.162;2023-04-27T12:28:38;9.50;99.90
44886;DHT22;36669;51.428;21.162;2023-04-27T12:31:05;9.40;99.90
44886;DHT22;36669;51.428;21.162;2023-04-27T12:33:33;9.40;99.90
44886;DHT22;36669;51.428;21.162;2023-04-27T12:36:01;9.40;99.90
44886;DHT22;36669;51.428;21.162;2023-04-27T12:38:32;9.50;99.90
44886;DHT22;36669;51.428;21.162;2023-04-27T12:40:59;9.50;99.90
44886;DHT22;36669;51.428;21.162;2023-04-27T12:43:35;9.50;99.90
44886;DHT22;36669;51.428;21.162;2023-04-27T12:46:02;9.40;99.90
44886;DHT22;36669;51.428;21.162;2023-04-27T12:48:28;9.30;99.90
44886;DHT22;36669;51.428;21.162;2023-04-27T12:50:55;9.20;99.90
44886;DHT22;36669;51.428;21.162;2023-04-27T12:53:21;9.20;99.90
44886;DHT22;36669;51.428;21.162;2023-04-27T12:55:48;9.20;99.90
44886;DHT22;36669;51.428;21.162;2023-04-27T12:58:15;9.30;99.90
44886;DHT22;36669;51.428;21.162;2023-04-27T13:00:40;9.30;99.90
44886;DHT22;36669;51.428;21.162;2023-04-27T13:03:06;9.20;99.90
44886;DHT22;36669;51.428;21.162;2023-04-27T13:05:33;9.30;99.90
44886;DHT22;36669;51.428;21.162;2023-04-27T13:07:59;9.30;99.90
44886;DHT22;36669;51.428;21.162;2023-04-27T13:10:26;9.30;99.90
44886;DHT22;36669;51.428;21.162;2023-04-27T13:12:53;9.20;99.90
44886;DHT22;36669;51.428;21.162;2023-04-27T13:15:19;9.40;99.90
44886;DHT22;36669;51.428;21.162;2023-04-27T13:17:46;9.30;99.90
44886;DHT22;36669;51.428;21.162;2023-04-27T13:20:13;9.30;99.90
44886;DHT22;36669;51.428;21.162;2023-04-27T13:22:39;9.30;99.90
44886;DHT22;36669;51.428;21.162;2023-04-27T13:25:06;9.30;99.90
44886;DHT22;36669;51.428;21.162;2023-04-27T13:27:34;9.30;99.90
44886;DHT22;36669;51.428;21.162;2023-04-27T13:30:02;9.20;99.90
44886;DHT22;36669;51.428;21.162;2023-04-27T13:32:27;9.10;99.90
44886;DHT22;36669;51.428;21.162;2023-04-27T13:34:54;9.20;99.90
44886;DHT22;36669;51.428;21.162;2023-04-27T13:37:21;9.10;99.90
44886;DHT22;36669;51.428;21.162;2023-04-27T13:39:47;9.20;99.90
44886;DHT22;36669;51.428;21.162;2023-04-27T13:42:14;9.30;99.90
44886;DHT22;36669;51.428;21.162;2023-04-27T13:44:41;9.30;99.90
44886;DHT22;36669;51.428;21.162;2023-04-27T13:47:08;9.50;99.80
44886;DHT22;36669;51.428;21.162;2023-04-27T13:49:33;9.40;95.80
44886;DHT22;36669;51.428;21.162;2023-04-27T13:52:00;9.60;95.00
44886;DHT22;36669;51.428;21.162;2023-04-27T13:54:25;9.70;95.00
44886;DHT22;36669;51.428;21.162;2023-04-27T13:56:51;9.90;95.10
44886;DHT22;36669;51.428;21.162;2023-04-27T13:59:20;10.30;92.60
44886;DHT22;36669;51.428;21.162;2023-04-27T14:01:47;10.70;91.40
44886;DHT22;36669;51.428;21.162;2023-04-27T14:04:14;10.80;91.00
44886;DHT22;36669;51.428;21.162;2023-04-27T14:06:41;10.30;88.90
44886;DHT22;36669;51.428;21.162;2023-04-27T14:09:06;10.00;89.60
44886;DHT22;36669;51.428;21.162;2023-04-27T14:11:35;9.90;87.40
44886;DHT22;36669;51.428;21.162;2023-04-27T14:14:02;9.90;87.90
44886;DHT22;36669;51.428;21.162;2023-04-27T14:16:29;9.90;88.90
44886;DHT22;36669;51.428;21.162;2023-04-27T14:18:56;9.80;89.20
44886;DHT22;36669;51.428;21.162;2023-04-27T14:21:24;9.80;90.40
44886;DHT22;36669;51.428;21.162;2023-04-27T14:23:51;9.80;90.20
44886;DHT22;36669;51.428;21.162;2023-04-27T14:26:18;9.90;90.70
44886;DHT22;36669;51.428;21.162;2023-04-27T14:28:45;9.70;91.10
44886;DHT22;36669;51.428;21.162;2023-04-27T14:31:13;9.80;91.90
44886;DHT22;36669;51.428;21.162;2023-04-27T14:33:40;9.90;92.10
44886;DHT22;36669;51.428;21.162;2023-04-27T14:36:05;9.80;92.40
44886;DHT22;36669;51.428;21.162;2023-04-27T14:38:32;9.90;92.90
44886;DHT22;36669;51.428;21.162;2023-04-27T14:40:58;10.20;92.00
44886;DHT22;36669;51.428;21.162;2023-04-27T14:43:24;10.20;91.70
44886;DHT22;36669;51.428;21.162;2023-04-27T14:45:53;10.30;91.90
44886;DHT22;36669;51.428;21.162;2023-04-27T14:48:21;10.40;92.20
44886;DHT22;36669;51.428;21.162;2023-04-27T14:50:49;10.40;92.10
44886;DHT22;36669;51.428;21.162;2023-04-27T14:53:17;10.50;92.50
44886;DHT22;36669;51.428;21.162;2023-04-27T14:55:42;10.40;92.40
44886;DHT22;36669;51.428;21.162;2023-04-27T14:58:11;10.30;93.10
44886;DHT22;36669;51.428;21.162;2023-04-27T15:00:36;10.50;93.30
44886;DHT22;36669;51.428;21.162;2023-04-27T15:03:04;10.50;93.10
44886;DHT22;36669;51.428;21.162;2023-04-27T15:05:32;10.40;92.60
44886;DHT22;36669;51.428;21.162;2023-04-27T15:08:02;10.40;93.10
44886;DHT22;36669;51.428;21.162;2023-04-27T15:10:27;10.30;91.30
44886;DHT22;36669;51.428;21.162;2023-04-27T15:12:54;10.50;91.10
44886;DHT22;36669;51.428;21.162;2023-04-27T15:15:19;10.60;89.30
44886;DHT22;36669;51.428;21.162;2023-04-27T15:17:46;10.50;90.50
44886;DHT22;36669;51.428;21.162;2023-04-27T15:20:13;10.50;90.10
44886;DHT22;36669;51.428;21.162;2023-04-27T15:22:38;10.20;88.90
44886;DHT22;36669;51.428;21.162;2023-04-27T15:25:04;10.20;89.70
44886;DHT22;36669;51.428;21.162;2023-04-27T15:27:32;10.10;90.30
44886;DHT22;36669;51.428;21.162;2023-04-27T15:29:59;10.00;90.90
44886;DHT22;36669;51.428;21.162;2023-04-27T15:32:24;10.00;91.60
44886;DHT22;36669;51.428;21.162;2023-04-27T15:34:56;10.10;91.60
44886;DHT22;36669;51.428;21.162;2023-04-27T15:37:26;10.50;91.00